Frisco, North Carolina
Current Conditions -  °F | °C
As of 6:51 PM on Saturday 22 Nov 2014 (Local Time) from KHSE Reporting Station
Clear Clear  
Wind Chill: 43°   Ceiling: Unl
Heat Index: 45°   Visibility: 10mi
Dew Point: 43°   Wind: 5mph
Humidity: 93%   Direction: 360°N
Pressure: 30.4"   Gusts: NA
Location:  35.23°N, 75.63°W
Report Text: KHSE 222351Z AUTO 36004KT 10SM CLR 07/06 A3040 RMK AO2 SLP295 T00720061 10117 20072 58009 TSNO
Loading
Personal Weather Stations






























Interactive Weather Map New forecast layout! Learn more

10-Day Weather Forecast

Advertisements
Track Severe Weather on mobile